Time;durP1;ratioP1;P1;durP2;ratioP2;P2;SDS_P1;SDS_P2;PMS_P1;PMS_P2;Temp;Humidity;BMP_temperature;BMP_pressure;BME280_temperature;BME280_humidity;BME280_pressure;Samples;Min_cycle;Max_cycle;Signal;HPM_P1;HPM_P2
2022/12/31 09:24:38;;;;;;;0.93;0.50;;;;;;;14.55;100.00;96371.81;4960040;28;20063;-91
2022/12/31 09:28:00;;;;;;;1.23;0.50;;;;;;;14.52;100.00;96381.91;4905489;29;20706;-90
2022/12/31 09:30:33;;;;;;;1.30;0.60;;;;;;;14.47;100.00;96378.97;4919419;29;20027;-92
2022/12/31 09:33:51;;;;;;;3.47;0.73;;;;;;;14.42;100.00;96392.75;4904718;29;20032;-89
2022/12/31 09:40:54;;;;;;;5.50;2.55;;;;;;;14.52;100.00;96381.91;4872676;29;20059;-91
2022/12/31 09:59:40;;;;;;;1.65;0.90;;;;;;;16.20;100.00;96377.47;4867316;29;20048;-91
2022/12/31 10:02:37;;;;;;;0.50;0.45;;;;;;;16.25;100.00;96376.91;4844749;29;20650;-94
2022/12/31 10:05:40;;;;;;;2.13;1.10;;;;;;;16.25;100.00;96383.03;4832478;29;20098;-93
2022/12/31 10:09:00;;;;;;;1.00;0.63;;;;;;;16.44;100.00;96394.81;4830720;29;20048;-95
2022/12/31 10:19:03;;;;;;;1.02;0.65;;;;;;;15.78;100.00;96392.34;4920759;29;20039;-91
2022/12/31 10:21:56;;;;;;;2.35;0.60;;;;;;;15.87;100.00;96381.66;4909293;29;20467;-94
2022/12/31 10:24:31;;;;;;;3.10;1.10;;;;;;;15.98;100.00;96387.25;4934289;29;20026;-93
2022/12/31 10:27:09;;;;;;;4.60;1.13;;;;;;;16.35;100.00;96385.34;4916755;29;20063;-79
2022/12/31 10:30:00;;;;;;;1.90;0.60;;;;;;;16.40;100.00;96385.59;4915314;29;20665;-75
2022/12/31 10:32:38;;;;;;;4.28;0.55;;;;;;;16.56;100.00;96375.69;4911914;29;20028;-71
2022/12/31 10:39:02;;;;;;;2.50;0.60;;;;;;;17.20;100.00;96357.75;4923106;29;20144;-72
2022/12/31 10:41:52;;;;;;;1.65;0.70;;;;;;;17.12;100.00;96360.56;4916133;29;20046;-77
2022/12/31 10:44:40;;;;;;;4.05;0.93;;;;;;;17.09;100.00;96360.94;4921466;29;20150;-74
2022/12/31 10:47:39;;;;;;;0.98;0.40;;;;;;;16.79;100.00;96365.69;4913636;29;20043;-73
2022/12/31 10:50:36;;;;;;;0.80;0.55;;;;;;;17.07;100.00;96363.00;4913912;29;20122;-73
2022/12/31 10:53:20;;;;;;;8.13;3.35;;;;;;;17.13;100.00;96362.19;4918412;29;20446;-74
2022/12/31 10:55:55;;;;;;;2.00;1.20;;;;;;;17.11;100.00;96358.13;4913728;29;20032;-73
2022/12/31 10:58:55;;;;;;;1.85;0.75;;;;;;;17.15;100.00;96351.38;4932696;29;20050;-73
2022/12/31 11:01:53;;;;;;;0.93;0.50;;;;;;;16.99;100.00;96346.38;4928610;29;20027;-74
2022/12/31 11:04:47;;;;;;;3.42;0.77;;;;;;;16.95;100.00;96364.56;4923560;29;20046;-73
2022/12/31 11:07:45;;;;;;;2.03;0.60;;;;;;;17.24;100.00;96360.84;4923609;29;20061;-72
2022/12/31 11:10:33;;;;;;;1.00;0.60;;;;;;;17.36;100.00;96358.41;4921454;29;20479;-72
2022/12/31 11:13:36;;;;;;;3.28;0.50;;;;;;;18.01;100.00;96354.34;4930238;29;20490;-72
2022/12/31 11:16:21;;;;;;;2.45;0.77;;;;;;;17.77;100.00;96363.72;4929639;29;20402;-74
2022/12/31 11:19:06;;;;;;;3.55;1.73;;;;;;;17.87;100.00;96357.97;4929322;29;20073;-74
2022/12/31 11:21:57;;;;;;;3.30;1.13;;;;;;;17.74;100.00;96364.06;4931508;29;20142;-74
2022/12/31 13:17:42;;;;;;;1.48;0.70;;;;;;;16.68;100.00;96311.25;4951502;29;20044;-92
2022/12/31 13:21:02;;;;;;;1.63;0.65;;;;;;;16.63;100.00;96308.38;4947216;29;20043;-91
2022/12/31 15:17:58;;;;;;;5.80;2.00;;;;;;;13.04;100.00;96355.59;4933346;29;20611;-95
2022/12/31 15:21:02;;;;;;;2.83;1.63;;;;;;;13.03;100.00;96351.31;4900786;29;20035;-93
2022/12/31 15:27:45;;;;;;;5.65;3.03;;;;;;;12.95;100.00;96349.56;4924469;29;20104;-94
2022/12/31 18:58:24;;;;;;;9.53;4.43;;;;;;;11.45;100.00;96415.00;4858243;29;20051;-87
2022/12/31 19:39:33;;;;;;;8.40;4.13;;;;;;;12.09;100.00;96405.59;4921892;29;20107;-87
2022/12/31 19:42:26;;;;;;;5.10;2.83;;;;;;;12.17;100.00;96412.66;4915026;29;20477;-88
2022/12/31 19:44:56;;;;;;;66.60;45.53;;;;;;;12.14;100.00;96410.34;4900271;29;20036;-87
2022/12/31 21:38:22;;;;;;;4.97;1.97;;;;;;;11.79;100.00;96436.00;4767834;29;20074;-88
2022/12/31 21:41:49;;;;;;;3.97;1.90;;;;;;;11.84;100.00;96443.41;4920051;29;20035;-88
2022/12/31 21:44:19;;;;;;;4.30;1.70;;;;;;;11.85;100.00;96438.03;4886791;29;20036;-87
2022/12/31 21:49:53;;;;;;;3.53;1.70;;;;;;;11.91;100.00;96449.72;4887506;29;20092;-88
2022/12/31 21:52:33;;;;;;;4.03;3.00;;;;;;;11.95;100.00;96449.22;4903657;29;20036;-87
2022/12/31 21:57:53;;;;;;;7.50;4.10;;;;;;;11.88;100.00;96442.16;4895567;29;20072;-88
2022/12/31 22:05:51;;;;;;;4.37;2.23;;;;;;;11.85;100.00;96461.72;4912901;29;20123;-88
2022/12/31 22:08:19;;;;;;;5.47;2.80;;;;;;;11.85;100.00;96463.53;4903829;29;20032;-68
2022/12/31 22:10:45;;;;;;;6.67;3.40;;;;;;;11.84;100.00;96468.00;4911920;29;20071;-68
